This is the latest recevied weather packets stored in our database for station/object DAX206-13. If no packets are shown the sender has not sent any weather packets the latest 10 day(s).
| Time | Temp. | Humidity | Pressure | Rain* | Wind** | Luminosity | Snow |
|---|---|---|---|---|---|---|---|
| 1788274993 | 18.33° C | 77% | 1020.8 hPa | 0 mm | - | 157 W/m² | - |
| 1788274093 | 18.33° C | 74% | 1020.6 hPa | 0 mm | - | 50 W/m² | - |
| 1788273193 | 19.44° C | 71% | 1020.7 hPa | 0 mm | - | 78 W/m² | - |
| 1788272293 | 21.11° C | 67% | 1020.3 hPa | 0 mm | - | 96 W/m² | - |
| 1788271393 | 21.11° C | 68% | 1020.3 hPa | 0 mm | - | 726 W/m² | - |
| 1788270493 | 20.56° C | 69% | 1020.5 hPa | 0 mm | - | 259 W/m² | - |
| 1788269593 | 20° C | 69% | 1020.5 hPa | 0 mm | - | 117 W/m² | - |
| 1788268694 | 20° C | 69% | 1020.3 hPa | 0 mm | - | 257 W/m² | - |
| 1788267797 | 20.56° C | 67% | 1020.5 hPa | 0 mm | - | 225 W/m² | - |
| 1788266893 | 21.11° C | 65% | 1020.5 hPa | 0 mm | - | 165 W/m² | - |
| 1788265993 | 22.22° C | 66% | 1020.5 hPa | 0 mm | - | 195 W/m² | - |
| 1788265093 | 20.56° C | 71% | 1020.6 hPa | 0 mm | - | 770 W/m² | - |
| 1788264193 | 20.56° C | 69% | 1020.5 hPa | 0 mm | - | 110 W/m² | - |
| 1788263293 | 20.56° C | 70% | 1020.6 hPa | 0 mm | - | 337 W/m² | - |
| 1788262393 | 20° C | 72% | 1020.6 hPa | 0 mm | - | 353 W/m² | - |
| 1788261493 | 20° C | 73% | 1020.8 hPa | 0 mm | - | 318 W/m² | - |
| 1788260593 | 20° C | 73% | 1020.9 hPa | 0 mm | - | 199 W/m² | - |
| 1788259693 | 19.44° C | 74% | 1020.7 hPa | 0 mm | - | 271 W/m² | - |
| 1788258793 | 20° C | 75% | 1020.7 hPa | 0 mm | - | 673 W/m² | - |
| 1788257893 | 20.56° C | 74% | 1020.5 hPa | 0 mm | - | 247 W/m² | - |
| 1788256993 | 20° C | 75% | 1020.5 hPa | 0 mm | - | 597 W/m² | - |
| 1788256093 | 19.44° C | 77% | 1020.6 hPa | 0 mm | - | 688 W/m² | - |
| 1788255193 | 18.89° C | 78% | 1020.7 hPa | 0 mm | - | 335 W/m² | - |
| 1788254293 | 18.33° C | 77% | 1020.6 hPa | 0 mm | - | 129 W/m² | - |
| 1788253393 | 18.89° C | 80% | 1020.4 hPa | 0 mm | - | 386 W/m² | - |
* Rain latest hour (hover to see other rain measurements)
** Current wind speed in m/s (hover to see current wind gust speed)